sensor_id;sensor_type;location;lat;lon;timestamp;P1;durP1;ratioP1;P2;durP2;ratioP2
69410;SDS011;56604;48.652;9.194;2023-07-22T00:01:29;4.03;;;2.50;;
69410;SDS011;56604;48.652;9.194;2023-07-22T00:03:55;11.33;;;2.93;;
69410;SDS011;56604;48.652;9.194;2023-07-22T00:06:20;3.37;;;2.70;;
69410;SDS011;56604;48.652;9.194;2023-07-22T00:08:45;2.47;;;2.37;;
69410;SDS011;56604;48.652;9.194;2023-07-22T00:11:11;2.40;;;2.30;;
69410;SDS011;56604;48.652;9.194;2023-07-22T00:13:36;3.33;;;2.30;;
69410;SDS011;56604;48.652;9.194;2023-07-22T00:16:02;2.80;;;2.33;;
69410;SDS011;56604;48.652;9.194;2023-07-22T00:18:29;3.37;;;2.70;;
69410;SDS011;56604;48.652;9.194;2023-07-22T00:20:55;2.73;;;2.53;;
69410;SDS011;56604;48.652;9.194;2023-07-22T00:23:21;3.63;;;2.60;;
69410;SDS011;56604;48.652;9.194;2023-07-22T00:25:46;2.90;;;2.70;;
69410;SDS011;56604;48.652;9.194;2023-07-22T00:28:12;2.57;;;2.37;;
69410;SDS011;56604;48.652;9.194;2023-07-22T00:30:38;2.77;;;2.57;;
69410;SDS011;56604;48.652;9.194;2023-07-22T00:33:03;2.63;;;2.53;;
69410;SDS011;56604;48.652;9.194;2023-07-22T00:35:29;2.77;;;2.37;;
69410;SDS011;56604;48.652;9.194;2023-07-22T00:37:54;3.00;;;2.80;;
69410;SDS011;56604;48.652;9.194;2023-07-22T00:40:19;4.03;;;2.60;;
69410;SDS011;56604;48.652;9.194;2023-07-22T00:42:45;2.73;;;2.60;;
69410;SDS011;56604;48.652;9.194;2023-07-22T00:45:10;3.23;;;2.90;;
69410;SDS011;56604;48.652;9.194;2023-07-22T00:47:36;2.37;;;2.27;;
69410;SDS011;56604;48.652;9.194;2023-07-22T00:50:11;3.67;;;2.90;;
69410;SDS011;56604;48.652;9.194;2023-07-22T00:52:37;2.67;;;2.47;;
69410;SDS011;56604;48.652;9.194;2023-07-22T00:55:04;4.50;;;2.83;;
69410;SDS011;56604;48.652;9.194;2023-07-22T00:57:30;3.23;;;2.60;;
69410;SDS011;56604;48.652;9.194;2023-07-22T00:59:55;2.43;;;2.33;;
69410;SDS011;56604;48.652;9.194;2023-07-22T01:02:21;4.77;;;3.30;;
69410;SDS011;56604;48.652;9.194;2023-07-22T01:04:47;3.40;;;2.30;;
69410;SDS011;56604;48.652;9.194;2023-07-22T01:07:13;4.67;;;2.70;;
69410;SDS011;56604;48.652;9.194;2023-07-22T01:09:40;2.77;;;2.67;;
69410;SDS011;56604;48.652;9.194;2023-07-22T01:12:07;6.27;;;3.10;;
69410;SDS011;56604;48.652;9.194;2023-07-22T01:14:33;5.47;;;3.20;;
69410;SDS011;56604;48.652;9.194;2023-07-22T01:17:01;2.90;;;2.67;;
69410;SDS011;56604;48.652;9.194;2023-07-22T01:19:28;3.57;;;3.27;;
69410;SDS011;56604;48.652;9.194;2023-07-22T01:21:54;8.20;;;3.40;;
69410;SDS011;56604;48.652;9.194;2023-07-22T01:24:20;3.10;;;2.80;;
69410;SDS011;56604;48.652;9.194;2023-07-22T01:26:46;3.47;;;3.17;;
69410;SDS011;56604;48.652;9.194;2023-07-22T01:29:12;3.17;;;2.97;;
69410;SDS011;56604;48.652;9.194;2023-07-22T01:31:38;3.50;;;3.20;;
69410;SDS011;56604;48.652;9.194;2023-07-22T01:34:03;2.50;;;2.40;;
69410;SDS011;56604;48.652;9.194;2023-07-22T01:36:31;4.40;;;2.93;;
69410;SDS011;56604;48.652;9.194;2023-07-22T01:38:57;3.33;;;2.60;;
69410;SDS011;56604;48.652;9.194;2023-07-22T01:41:22;5.37;;;3.33;;
69410;SDS011;56604;48.652;9.194;2023-07-22T01:43:48;2.80;;;2.70;;
69410;SDS011;56604;48.652;9.194;2023-07-22T01:46:14;3.47;;;3.20;;
69410;SDS011;56604;48.652;9.194;2023-07-22T01:48:39;3.60;;;3.40;;
69410;SDS011;56604;48.652;9.194;2023-07-22T01:51:04;9.00;;;3.00;;
69410;SDS011;56604;48.652;9.194;2023-07-22T01:53:30;4.03;;;3.20;;
69410;SDS011;56604;48.652;9.194;2023-07-22T01:55:55;11.33;;;3.43;;
69410;SDS011;56604;48.652;9.194;2023-07-22T01:58:21;3.03;;;2.73;;
69410;SDS011;56604;48.652;9.194;2023-07-22T02:00:52;3.17;;;2.97;;
69410;SDS011;56604;48.652;9.194;2023-07-22T02:03:17;4.37;;;2.80;;
69410;SDS011;56604;48.652;9.194;2023-07-22T02:05:43;4.10;;;3.17;;
69410;SDS011;56604;48.652;9.194;2023-07-22T02:08:08;3.20;;;2.70;;
69410;SDS011;56604;48.652;9.194;2023-07-22T02:10:33;3.20;;;2.90;;
69410;SDS011;56604;48.652;9.194;2023-07-22T02:12:59;3.30;;;3.00;;
69410;SDS011;56604;48.652;9.194;2023-07-22T02:15:24;3.07;;;2.80;;
69410;SDS011;56604;48.652;9.194;2023-07-22T02:17:50;3.33;;;3.17;;
69410;SDS011;56604;48.652;9.194;2023-07-22T02:20:15;3.20;;;3.00;;
69410;SDS011;56604;48.652;9.194;2023-07-22T02:22:42;3.47;;;2.97;;
69410;SDS011;56604;48.652;9.194;2023-07-22T02:25:07;4.67;;;3.00;;
69410;SDS011;56604;48.652;9.194;2023-07-22T02:27:35;2.73;;;2.63;;
69410;SDS011;56604;48.652;9.194;2023-07-22T02:30:00;2.93;;;2.73;;
69410;SDS011;56604;48.652;9.194;2023-07-22T02:32:26;3.90;;;3.30;;
69410;SDS011;56604;48.652;9.194;2023-07-22T02:34:51;3.00;;;2.80;;
69410;SDS011;56604;48.652;9.194;2023-07-22T02:37:16;3.40;;;2.67;;
69410;SDS011;56604;48.652;9.194;2023-07-22T02:39:41;2.50;;;2.40;;
69410;SDS011;56604;48.652;9.194;2023-07-22T02:42:07;2.40;;;2.30;;
69410;SDS011;56604;48.652;9.194;2023-07-22T02:44:32;3.00;;;2.60;;
69410;SDS011;56604;48.652;9.194;2023-07-22T02:46:57;3.60;;;2.90;;
69410;SDS011;56604;48.652;9.194;2023-07-22T02:49:23;6.43;;;2.50;;
69410;SDS011;56604;48.652;9.194;2023-07-22T02:51:49;4.77;;;3.00;;
69410;SDS011;56604;48.652;9.194;2023-07-22T02:54:14;3.17;;;2.97;;
69410;SDS011;56604;48.652;9.194;2023-07-22T02:56:39;5.30;;;2.80;;
69410;SDS011;56604;48.652;9.194;2023-07-22T02:59:06;2.97;;;2.77;;
69410;SDS011;56604;48.652;9.194;2023-07-22T03:01:31;4.13;;;2.43;;
69410;SDS011;56604;48.652;9.194;2023-07-22T03:03:57;2.77;;;2.60;;
69410;SDS011;56604;48.652;9.194;2023-07-22T03:06:22;3.17;;;2.87;;
69410;SDS011;56604;48.652;9.194;2023-07-22T03:08:47;3.03;;;2.83;;
69410;SDS011;56604;48.652;9.194;2023-07-22T03:11:13;3.07;;;2.80;;
69410;SDS011;56604;48.652;9.194;2023-07-22T03:13:39;4.20;;;2.60;;
69410;SDS011;56604;48.652;9.194;2023-07-22T03:16:04;7.40;;;3.10;;
69410;SDS011;56604;48.652;9.194;2023-07-22T03:18:30;3.37;;;2.80;;
69410;SDS011;56604;48.652;9.194;2023-07-22T03:20:56;5.43;;;2.70;;
69410;SDS011;56604;48.652;9.194;2023-07-22T03:23:22;7.20;;;2.57;;
69410;SDS011;56604;48.652;9.194;2023-07-22T03:25:47;2.63;;;2.43;;
69410;SDS011;56604;48.652;9.194;2023-07-22T03:28:13;2.80;;;2.60;;
69410;SDS011;56604;48.652;9.194;2023-07-22T03:30:38;3.60;;;3.30;;
69410;SDS011;56604;48.652;9.194;2023-07-22T03:33:04;2.57;;;2.40;;
69410;SDS011;56604;48.652;9.194;2023-07-22T03:35:30;6.23;;;3.00;;
69410;SDS011;56604;48.652;9.194;2023-07-22T03:37:56;2.47;;;2.30;;
69410;SDS011;56604;48.652;9.194;2023-07-22T03:40:21;5.83;;;2.90;;
69410;SDS011;56604;48.652;9.194;2023-07-22T03:42:52;3.10;;;2.70;;
69410;SDS011;56604;48.652;9.194;2023-07-22T03:45:19;4.47;;;2.80;;
69410;SDS011;56604;48.652;9.194;2023-07-22T03:47:46;3.00;;;2.70;;
69410;SDS011;56604;48.652;9.194;2023-07-22T03:50:12;3.00;;;2.70;;
69410;SDS011;56604;48.652;9.194;2023-07-22T03:52:38;4.00;;;3.00;;
69410;SDS011;56604;48.652;9.194;2023-07-22T03:55:04;2.80;;;2.60;;
69410;SDS011;56604;48.652;9.194;2023-07-22T03:57:30;3.17;;;2.50;;
69410;SDS011;56604;48.652;9.194;2023-07-22T03:59:56;7.50;;;3.03;;
69410;SDS011;56604;48.652;9.194;2023-07-22T04:02:22;3.10;;;2.90;;
69410;SDS011;56604;48.652;9.194;2023-07-22T04:04:47;4.83;;;3.23;;
69410;SDS011;56604;48.652;9.194;2023-07-22T04:07:13;3.40;;;2.40;;
69410;SDS011;56604;48.652;9.194;2023-07-22T04:09:38;4.57;;;2.30;;
69410;SDS011;56604;48.652;9.194;2023-07-22T04:12:04;3.53;;;2.60;;
69410;SDS011;56604;48.652;9.194;2023-07-22T04:14:29;2.93;;;2.63;;
69410;SDS011;56604;48.652;9.194;2023-07-22T04:16:55;2.70;;;2.20;;
69410;SDS011;56604;48.652;9.194;2023-07-22T04:19:20;1.80;;;1.80;;
69410;SDS011;56604;48.652;9.194;2023-07-22T04:21:45;3.00;;;2.80;;
69410;SDS011;56604;48.652;9.194;2023-07-22T04:24:11;3.70;;;2.33;;
69410;SDS011;56604;48.652;9.194;2023-07-22T04:26:36;7.80;;;3.00;;
69410;SDS011;56604;48.652;9.194;2023-07-22T04:29:01;2.93;;;2.43;;
69410;SDS011;56604;48.652;9.194;2023-07-22T04:31:26;2.47;;;2.30;;
69410;SDS011;56604;48.652;9.194;2023-07-22T04:33:52;2.63;;;2.43;;
69410;SDS011;56604;48.652;9.194;2023-07-22T04:36:17;2.70;;;2.50;;
69410;SDS011;56604;48.652;9.194;2023-07-22T04:38:42;2.63;;;2.53;;
69410;SDS011;56604;48.652;9.194;2023-07-22T04:41:08;2.23;;;2.00;;
69410;SDS011;56604;48.652;9.194;2023-07-22T04:43:33;2.53;;;2.17;;
69410;SDS011;56604;48.652;9.194;2023-07-22T04:45:58;3.07;;;2.70;;
69410;SDS011;56604;48.652;9.194;2023-07-22T04:48:23;3.33;;;3.03;;
69410;SDS011;56604;48.652;9.194;2023-07-22T04:50:49;2.73;;;2.40;;
69410;SDS011;56604;48.652;9.194;2023-07-22T04:53:15;3.50;;;2.80;;
69410;SDS011;56604;48.652;9.194;2023-07-22T04:55:42;2.90;;;2.40;;
69410;SDS011;56604;48.652;9.194;2023-07-22T04:58:07;4.70;;;2.80;;
69410;SDS011;56604;48.652;9.194;2023-07-22T05:00:34;2.23;;;2.13;;
69410;SDS011;56604;48.652;9.194;2023-07-22T05:02:59;6.10;;;2.50;;
69410;SDS011;56604;48.652;9.194;2023-07-22T05:05:25;3.00;;;2.70;;
69410;SDS011;56604;48.652;9.194;2023-07-22T05:07:50;2.53;;;2.17;;
69410;SDS011;56604;48.652;9.194;2023-07-22T05:10:17;2.73;;;2.53;;
69410;SDS011;56604;48.652;9.194;2023-07-22T05:12:44;2.30;;;2.20;;
69410;SDS011;56604;48.652;9.194;2023-07-22T05:15:10;4.97;;;2.30;;
69410;SDS011;56604;48.652;9.194;2023-07-22T05:17:36;4.33;;;2.90;;
69410;SDS011;56604;48.652;9.194;2023-07-22T05:20:01;2.93;;;2.73;;
69410;SDS011;56604;48.652;9.194;2023-07-22T05:22:28;5.20;;;2.90;;
69410;SDS011;56604;48.652;9.194;2023-07-22T05:24:54;3.10;;;2.50;;
69410;SDS011;56604;48.652;9.194;2023-07-22T05:27:19;2.73;;;2.53;;
69410;SDS011;56604;48.652;9.194;2023-07-22T05:29:44;2.70;;;2.50;;
69410;SDS011;56604;48.652;9.194;2023-07-22T05:32:10;10.70;;;2.40;;
69410;SDS011;56604;48.652;9.194;2023-07-22T05:34:36;6.50;;;2.30;;
69410;SDS011;56604;48.652;9.194;2023-07-22T05:37:01;3.30;;;2.50;;
69410;SDS011;56604;48.652;9.194;2023-07-22T05:39:26;2.93;;;2.73;;
69410;SDS011;56604;48.652;9.194;2023-07-22T05:41:51;2.87;;;2.67;;
69410;SDS011;56604;48.652;9.194;2023-07-22T05:44:17;3.83;;;2.60;;
69410;SDS011;56604;48.652;9.194;2023-07-22T05:46:42;2.60;;;2.33;;
69410;SDS011;56604;48.652;9.194;2023-07-22T05:49:08;2.40;;;2.30;;
69410;SDS011;56604;48.652;9.194;2023-07-22T05:51:34;2.63;;;2.40;;
69410;SDS011;56604;48.652;9.194;2023-07-22T05:53:59;2.27;;;2.17;;
69410;SDS011;56604;48.652;9.194;2023-07-22T05:56:24;2.40;;;2.30;;
69410;SDS011;56604;48.652;9.194;2023-07-22T05:58:49;2.23;;;2.10;;
69410;SDS011;56604;48.652;9.194;2023-07-22T06:01:15;2.63;;;2.00;;
69410;SDS011;56604;48.652;9.194;2023-07-22T06:03:40;2.40;;;2.30;;
69410;SDS011;56604;48.652;9.194;2023-07-22T06:06:07;2.77;;;2.57;;
69410;SDS011;56604;48.652;9.194;2023-07-22T06:08:32;2.23;;;2.03;;
69410;SDS011;56604;48.652;9.194;2023-07-22T06:10:57;2.17;;;2.07;;
69410;SDS011;56604;48.652;9.194;2023-07-22T06:13:23;3.53;;;2.80;;
69410;SDS011;56604;48.652;9.194;2023-07-22T06:15:48;2.10;;;2.00;;
69410;SDS011;56604;48.652;9.194;2023-07-22T06:18:13;2.03;;;1.97;;
69410;SDS011;56604;48.652;9.194;2023-07-22T06:20:39;2.07;;;1.97;;
69410;SDS011;56604;48.652;9.194;2023-07-22T06:23:04;6.23;;;1.97;;
69410;SDS011;56604;48.652;9.194;2023-07-22T06:25:30;3.25;;;2.00;;
69410;SDS011;56604;48.652;9.194;2023-07-22T06:27:55;2.10;;;2.00;;
69410;SDS011;56604;48.652;9.194;2023-07-22T06:30:21;2.90;;;2.30;;
69410;SDS011;56604;48.652;9.194;2023-07-22T06:32:47;2.80;;;1.97;;
69410;SDS011;56604;48.652;9.194;2023-07-22T06:35:12;2.28;;;2.08;;
69410;SDS011;56604;48.652;9.194;2023-07-22T06:37:38;2.78;;;1.90;;
69410;SDS011;56604;48.652;9.194;2023-07-22T06:40:04;2.00;;;1.90;;
69410;SDS011;56604;48.652;9.194;2023-07-22T06:42:30;4.32;;;2.13;;
69410;SDS011;56604;48.652;9.194;2023-07-22T06:44:55;2.25;;;1.98;;
69410;SDS011;56604;48.652;9.194;2023-07-22T06:47:20;5.45;;;1.80;;
69410;SDS011;56604;48.652;9.194;2023-07-22T06:49:46;2.58;;;2.38;;
69410;SDS011;56604;48.652;9.194;2023-07-22T06:52:11;8.53;;;2.37;;
69410;SDS011;56604;48.652;9.194;2023-07-22T06:54:37;2.30;;;1.77;;
69410;SDS011;56604;48.652;9.194;2023-07-22T06:57:02;2.07;;;1.97;;
69410;SDS011;56604;48.652;9.194;2023-07-22T06:59:28;9.35;;;1.90;;
69410;SDS011;56604;48.652;9.194;2023-07-22T07:01:53;2.30;;;1.80;;
69410;SDS011;56604;48.652;9.194;2023-07-22T07:04:19;2.23;;;2.13;;
69410;SDS011;56604;48.652;9.194;2023-07-22T07:06:44;3.23;;;2.17;;
69410;SDS011;56604;48.652;9.194;2023-07-22T07:09:11;2.47;;;1.90;;
69410;SDS011;56604;48.652;9.194;2023-07-22T07:11:36;6.63;;;2.53;;
69410;SDS011;56604;48.652;9.194;2023-07-22T07:14:01;2.40;;;2.00;;
69410;SDS011;56604;48.652;9.194;2023-07-22T07:16:28;3.83;;;2.50;;
69410;SDS011;56604;48.652;9.194;2023-07-22T07:18:56;2.30;;;2.20;;
69410;SDS011;56604;48.652;9.194;2023-07-22T07:21:22;3.83;;;2.30;;
69410;SDS011;56604;48.652;9.194;2023-07-22T07:23:48;8.03;;;2.50;;
69410;SDS011;56604;48.652;9.194;2023-07-22T07:26:14;1.90;;;1.80;;
69410;SDS011;56604;48.652;9.194;2023-07-22T07:28:40;2.70;;;2.30;;
69410;SDS011;56604;48.652;9.194;2023-07-22T07:31:05;1.77;;;1.77;;
69410;SDS011;56604;48.652;9.194;2023-07-22T07:33:31;2.60;;;2.00;;
69410;SDS011;56604;48.652;9.194;2023-07-22T07:35:57;2.20;;;2.10;;
69410;SDS011;56604;48.652;9.194;2023-07-22T07:38:22;1.90;;;1.80;;
69410;SDS011;56604;48.652;9.194;2023-07-22T07:40:51;3.97;;;2.23;;
69410;SDS011;56604;48.652;9.194;2023-07-22T07:43:18;3.37;;;2.00;;
69410;SDS011;56604;48.652;9.194;2023-07-22T07:45:43;2.50;;;2.40;;
69410;SDS011;56604;48.652;9.194;2023-07-22T07:48:08;2.90;;;1.97;;
69410;SDS011;56604;48.652;9.194;2023-07-22T07:50:34;2.50;;;2.00;;
69410;SDS011;56604;48.652;9.194;2023-07-22T07:52:59;2.03;;;1.93;;
69410;SDS011;56604;48.652;9.194;2023-07-22T07:55:24;2.83;;;2.17;;
69410;SDS011;56604;48.652;9.194;2023-07-22T07:57:50;2.70;;;2.07;;
69410;SDS011;56604;48.652;9.194;2023-07-22T08:00:16;2.23;;;1.87;;
69410;SDS011;56604;48.652;9.194;2023-07-22T08:02:41;1.50;;;1.40;;
69410;SDS011;56604;48.652;9.194;2023-07-22T08:05:07;8.13;;;1.83;;
69410;SDS011;56604;48.652;9.194;2023-07-22T08:07:33;1.90;;;1.83;;
69410;SDS011;56604;48.652;9.194;2023-07-22T08:09:59;6.70;;;1.60;;
69410;SDS011;56604;48.652;9.194;2023-07-22T08:12:26;1.67;;;1.57;;
69410;SDS011;56604;48.652;9.194;2023-07-22T08:14:52;4.90;;;1.87;;
69410;SDS011;56604;48.652;9.194;2023-07-22T08:17:20;3.50;;;2.10;;
69410;SDS011;56604;48.652;9.194;2023-07-22T08:19:45;2.00;;;1.90;;
69410;SDS011;56604;48.652;9.194;2023-07-22T08:22:10;2.83;;;1.93;;
69410;SDS011;56604;48.652;9.194;2023-07-22T08:24:36;3.13;;;1.60;;
69410;SDS011;56604;48.652;9.194;2023-07-22T08:27:01;1.50;;;1.40;;
69410;SDS011;56604;48.652;9.194;2023-07-22T08:29:26;1.80;;;1.70;;
69410;SDS011;56604;48.652;9.194;2023-07-22T08:31:52;1.83;;;1.73;;
69410;SDS011;56604;48.652;9.194;2023-07-22T08:34:17;2.10;;;2.00;;
69410;SDS011;56604;48.652;9.194;2023-07-22T08:36:42;2.57;;;1.60;;
69410;SDS011;56604;48.652;9.194;2023-07-22T08:39:08;2.30;;;2.10;;
69410;SDS011;56604;48.652;9.194;2023-07-22T08:41:33;2.53;;;1.67;;
69410;SDS011;56604;48.652;9.194;2023-07-22T08:44:00;1.63;;;1.50;;
69410;SDS011;56604;48.652;9.194;2023-07-22T08:46:28;2.07;;;1.50;;
69410;SDS011;56604;48.652;9.194;2023-07-22T08:48:57;2.83;;;1.50;;
69410;SDS011;56604;48.652;9.194;2023-07-22T08:51:25;1.80;;;1.70;;
69410;SDS011;56604;48.652;9.194;2023-07-22T08:53:53;1.57;;;1.47;;
69410;SDS011;56604;48.652;9.194;2023-07-22T08:56:22;1.73;;;1.63;;
69410;SDS011;56604;48.652;9.194;2023-07-22T08:58:50;3.53;;;1.83;;
69410;SDS011;56604;48.652;9.194;2023-07-22T09:01:16;2.58;;;1.70;;
69410;SDS011;56604;48.652;9.194;2023-07-22T09:03:42;1.98;;;1.60;;
69410;SDS011;56604;48.652;9.194;2023-07-22T09:06:08;4.22;;;1.75;;
69410;SDS011;56604;48.652;9.194;2023-07-22T09:08:34;4.20;;;1.60;;
69410;SDS011;56604;48.652;9.194;2023-07-22T09:10:59;4.50;;;2.10;;
69410;SDS011;56604;48.652;9.194;2023-07-22T09:13:26;2.33;;;1.70;;
69410;SDS011;56604;48.652;9.194;2023-07-22T09:15:52;3.40;;;1.83;;
69410;SDS011;56604;48.652;9.194;2023-07-22T09:18:18;2.83;;;1.97;;
69410;SDS011;56604;48.652;9.194;2023-07-22T09:20:44;2.53;;;1.90;;
69410;SDS011;56604;48.652;9.194;2023-07-22T09:23:09;1.90;;;1.90;;
69410;SDS011;56604;48.652;9.194;2023-07-22T09:25:34;1.60;;;1.60;;
69410;SDS011;56604;48.652;9.194;2023-07-22T09:28:00;6.23;;;2.00;;
69410;SDS011;56604;48.652;9.194;2023-07-22T09:30:30;1.67;;;1.60;;
69410;SDS011;56604;48.652;9.194;2023-07-22T09:33:00;6.23;;;2.00;;
69410;SDS011;56604;48.652;9.194;2023-07-22T09:35:27;2.20;;;1.97;;
69410;SDS011;56604;48.652;9.194;2023-07-22T09:38:07;1.77;;;1.67;;
69410;SDS011;56604;48.652;9.194;2023-07-22T09:40:32;1.77;;;1.67;;
69410;SDS011;56604;48.652;9.194;2023-07-22T09:43:00;5.90;;;1.57;;
69410;SDS011;56604;48.652;9.194;2023-07-22T09:45:30;2.10;;;1.90;;
69410;SDS011;56604;48.652;9.194;2023-07-22T09:47:56;1.93;;;1.83;;
69410;SDS011;56604;48.652;9.194;2023-07-22T09:50:23;15.03;;;1.70;;
69410;SDS011;56604;48.652;9.194;2023-07-22T09:52:51;1.90;;;1.80;;
69410;SDS011;56604;48.652;9.194;2023-07-22T09:55:21;3.83;;;2.13;;
69410;SDS011;56604;48.652;9.194;2023-07-22T09:57:54;2.97;;;1.80;;
69410;SDS011;56604;48.652;9.194;2023-07-22T10:00:20;2.97;;;1.80;;
69410;SDS011;56604;48.652;9.194;2023-07-22T10:02:46;1.80;;;1.70;;
69410;SDS011;56604;48.652;9.194;2023-07-22T10:05:15;1.90;;;1.80;;
69410;SDS011;56604;48.652;9.194;2023-07-22T10:07:52;10.20;;;1.70;;
69410;SDS011;56604;48.652;9.194;2023-07-22T10:10:23;1.93;;;1.63;;
69410;SDS011;56604;48.652;9.194;2023-07-22T10:12:51;9.00;;;1.53;;
69410;SDS011;56604;48.652;9.194;2023-07-22T10:15:18;58.95;;;3.85;;
69410;SDS011;56604;48.652;9.194;2023-07-22T10:17:43;13.50;;;1.53;;
69410;SDS011;56604;48.652;9.194;2023-07-22T10:20:10;1.20;;;1.20;;
69410;SDS011;56604;48.652;9.194;2023-07-22T10:22:40;2.93;;;1.37;;
69410;SDS011;56604;48.652;9.194;2023-07-22T10:25:14;4.87;;;1.30;;
69410;SDS011;56604;48.652;9.194;2023-07-22T10:27:41;2.20;;;1.60;;
69410;SDS011;56604;48.652;9.194;2023-07-22T10:30:11;13.33;;;1.63;;
69410;SDS011;56604;48.652;9.194;2023-07-22T10:32:39;3.80;;;1.20;;
69410;SDS011;56604;48.652;9.194;2023-07-22T10:35:11;2.70;;;1.37;;
69410;SDS011;56604;48.652;9.194;2023-07-22T10:37:55;1.50;;;1.40;;
69410;SDS011;56604;48.652;9.194;2023-07-22T10:42:52;2.07;;;1.97;;
69410;SDS011;56604;48.652;9.194;2023-07-22T10:45:29;2.20;;;1.47;;
69410;SDS011;56604;48.652;9.194;2023-07-22T10:48:07;4.70;;;1.90;;
69410;SDS011;56604;48.652;9.194;2023-07-22T10:50:38;2.03;;;1.93;;
69410;SDS011;56604;48.652;9.194;2023-07-22T10:53:03;2.50;;;2.03;;
69410;SDS011;56604;48.652;9.194;2023-07-22T10:55:29;1.97;;;1.87;;
69410;SDS011;56604;48.652;9.194;2023-07-22T10:57:54;5.00;;;1.70;;
69410;SDS011;56604;48.652;9.194;2023-07-22T11:00:21;1.70;;;1.70;;
69410;SDS011;56604;48.652;9.194;2023-07-22T11:02:47;2.20;;;1.73;;
69410;SDS011;56604;48.652;9.194;2023-07-22T11:08:15;2.03;;;1.83;;
69410;SDS011;56604;48.652;9.194;2023-07-22T11:11:02;3.83;;;1.73;;
69410;SDS011;56604;48.652;9.194;2023-07-22T11:13:27;2.10;;;2.00;;
69410;SDS011;56604;48.652;9.194;2023-07-22T11:15:53;2.37;;;2.23;;
69410;SDS011;56604;48.652;9.194;2023-07-22T11:18:22;2.37;;;2.20;;
69410;SDS011;56604;48.652;9.194;2023-07-22T11:20:52;2.40;;;2.20;;
69410;SDS011;56604;48.652;9.194;2023-07-22T11:23:19;2.40;;;2.20;;
69410;SDS011;56604;48.652;9.194;2023-07-22T11:25:45;3.33;;;2.33;;
69410;SDS011;56604;48.652;9.194;2023-07-22T11:28:10;3.60;;;2.00;;
69410;SDS011;56604;48.652;9.194;2023-07-22T11:30:35;8.23;;;2.30;;
69410;SDS011;56604;48.652;9.194;2023-07-22T11:33:02;1.93;;;1.80;;
69410;SDS011;56604;48.652;9.194;2023-07-22T11:35:27;1.90;;;1.80;;
69410;SDS011;56604;48.652;9.194;2023-07-22T11:38:00;1.70;;;1.60;;
69410;SDS011;56604;48.652;9.194;2023-07-22T11:40:32;1.93;;;1.73;;
69410;SDS011;56604;48.652;9.194;2023-07-22T11:42:58;2.23;;;1.90;;
69410;SDS011;56604;48.652;9.194;2023-07-22T11:45:24;3.43;;;2.17;;
69410;SDS011;56604;48.652;9.194;2023-07-22T11:47:49;2.40;;;2.00;;
69410;SDS011;56604;48.652;9.194;2023-07-22T11:50:15;1.70;;;1.60;;
69410;SDS011;56604;48.652;9.194;2023-07-22T11:52:40;2.10;;;2.00;;
69410;SDS011;56604;48.652;9.194;2023-07-22T11:55:05;2.00;;;1.90;;
69410;SDS011;56604;48.652;9.194;2023-07-22T11:57:31;2.40;;;1.97;;
69410;SDS011;56604;48.652;9.194;2023-07-22T11:59:56;7.40;;;1.90;;
69410;SDS011;56604;48.652;9.194;2023-07-22T12:02:24;2.03;;;1.73;;
69410;SDS011;56604;48.652;9.194;2023-07-22T12:05:08;5.20;;;2.00;;
69410;SDS011;56604;48.652;9.194;2023-07-22T12:07:37;2.20;;;2.10;;
69410;SDS011;56604;48.652;9.194;2023-07-22T12:10:06;2.40;;;2.30;;
69410;SDS011;56604;48.652;9.194;2023-07-22T12:12:35;5.27;;;2.40;;
69410;SDS011;56604;48.652;9.194;2023-07-22T12:15:03;2.17;;;2.07;;
69410;SDS011;56604;48.652;9.194;2023-07-22T12:20:12;2.20;;;2.10;;
69410;SDS011;56604;48.652;9.194;2023-07-22T12:22:38;5.13;;;1.97;;
69410;SDS011;56604;48.652;9.194;2023-07-22T12:25:03;2.20;;;2.00;;
69410;SDS011;56604;48.652;9.194;2023-07-22T12:27:30;2.07;;;1.90;;
69410;SDS011;56604;48.652;9.194;2023-07-22T12:29:55;2.10;;;2.00;;
69410;SDS011;56604;48.652;9.194;2023-07-22T12:32:20;2.40;;;2.30;;
69410;SDS011;56604;48.652;9.194;2023-07-22T12:34:46;3.60;;;2.20;;
69410;SDS011;56604;48.652;9.194;2023-07-22T12:37:11;4.33;;;2.43;;
69410;SDS011;56604;48.652;9.194;2023-07-22T12:39:37;4.93;;;2.00;;
69410;SDS011;56604;48.652;9.194;2023-07-22T12:42:02;2.70;;;2.50;;
69410;SDS011;56604;48.652;9.194;2023-07-22T12:44:27;2.40;;;2.20;;
69410;SDS011;56604;48.652;9.194;2023-07-22T12:46:53;3.07;;;2.20;;
69410;SDS011;56604;48.652;9.194;2023-07-22T12:49:18;8.90;;;2.03;;
69410;SDS011;56604;48.652;9.194;2023-07-22T12:51:44;3.57;;;2.40;;
69410;SDS011;56604;48.652;9.194;2023-07-22T12:54:09;3.90;;;1.90;;
69410;SDS011;56604;48.652;9.194;2023-07-22T12:56:34;6.80;;;2.33;;
69410;SDS011;56604;48.652;9.194;2023-07-22T12:58:59;2.47;;;2.37;;
69410;SDS011;56604;48.652;9.194;2023-07-22T13:01:25;2.13;;;2.03;;
69410;SDS011;56604;48.652;9.194;2023-07-22T13:03:50;2.47;;;2.37;;
69410;SDS011;56604;48.652;9.194;2023-07-22T13:06:15;4.20;;;2.40;;
69410;SDS011;56604;48.652;9.194;2023-07-22T13:08:41;2.23;;;2.07;;
69410;SDS011;56604;48.652;9.194;2023-07-22T13:11:06;2.37;;;2.27;;
69410;SDS011;56604;48.652;9.194;2023-07-22T13:13:31;2.40;;;2.30;;
69410;SDS011;56604;48.652;9.194;2023-07-22T13:15:56;3.07;;;2.80;;
69410;SDS011;56604;48.652;9.194;2023-07-22T13:18:22;5.03;;;2.93;;
69410;SDS011;56604;48.652;9.194;2023-07-22T13:20:47;3.10;;;2.73;;
69410;SDS011;56604;48.652;9.194;2023-07-22T13:23:12;3.80;;;3.27;;
69410;SDS011;56604;48.652;9.194;2023-07-22T13:25:38;3.67;;;3.43;;
69410;SDS011;56604;48.652;9.194;2023-07-22T13:28:03;3.60;;;3.03;;
69410;SDS011;56604;48.652;9.194;2023-07-22T13:30:28;7.23;;;2.60;;
69410;SDS011;56604;48.652;9.194;2023-07-22T13:32:54;2.87;;;2.57;;
69410;SDS011;56604;48.652;9.194;2023-07-22T13:35:21;3.53;;;3.20;;
69410;SDS011;56604;48.652;9.194;2023-07-22T13:37:46;3.40;;;2.70;;
69410;SDS011;56604;48.652;9.194;2023-07-22T13:40:12;2.57;;;2.43;;
69410;SDS011;56604;48.652;9.194;2023-07-22T13:42:37;3.43;;;2.53;;
69410;SDS011;56604;48.652;9.194;2023-07-22T13:45:03;6.43;;;2.53;;
69410;SDS011;56604;48.652;9.194;2023-07-22T13:47:28;3.87;;;2.83;;
69410;SDS011;56604;48.652;9.194;2023-07-22T13:49:54;2.90;;;2.70;;
69410;SDS011;56604;48.652;9.194;2023-07-22T13:52:19;4.27;;;2.77;;
69410;SDS011;56604;48.652;9.194;2023-07-22T13:54:44;10.53;;;3.30;;
69410;SDS011;56604;48.652;9.194;2023-07-22T13:57:10;4.20;;;2.93;;
69410;SDS011;56604;48.652;9.194;2023-07-22T13:59:36;3.30;;;3.10;;
69410;SDS011;56604;48.652;9.194;2023-07-22T14:02:01;3.10;;;2.90;;
69410;SDS011;56604;48.652;9.194;2023-07-22T14:04:26;3.70;;;2.90;;
69410;SDS011;56604;48.652;9.194;2023-07-22T14:06:51;3.40;;;3.10;;
69410;SDS011;56604;48.652;9.194;2023-07-22T14:09:17;2.93;;;2.73;;
69410;SDS011;56604;48.652;9.194;2023-07-22T14:11:42;4.30;;;3.57;;
69410;SDS011;56604;48.652;9.194;2023-07-22T14:14:07;3.33;;;3.13;;
69410;SDS011;56604;48.652;9.194;2023-07-22T14:16:33;3.73;;;2.90;;
69410;SDS011;56604;48.652;9.194;2023-07-22T14:18:58;3.47;;;3.13;;
69410;SDS011;56604;48.652;9.194;2023-07-22T14:21:23;4.03;;;3.73;;
69410;SDS011;56604;48.652;9.194;2023-07-22T14:23:49;3.40;;;3.00;;
69410;SDS011;56604;48.652;9.194;2023-07-22T14:26:14;5.10;;;3.60;;
69410;SDS011;56604;48.652;9.194;2023-07-22T14:28:39;3.47;;;3.27;;
69410;SDS011;56604;48.652;9.194;2023-07-22T14:31:05;5.90;;;4.07;;
69410;SDS011;56604;48.652;9.194;2023-07-22T14:33:30;10.30;;;3.60;;
69410;SDS011;56604;48.652;9.194;2023-07-22T14:35:56;3.37;;;3.00;;
69410;SDS011;56604;48.652;9.194;2023-07-22T14:38:21;3.67;;;3.30;;
69410;SDS011;56604;48.652;9.194;2023-07-22T14:40:46;4.80;;;3.27;;
69410;SDS011;56604;48.652;9.194;2023-07-22T14:43:12;3.63;;;3.23;;
69410;SDS011;56604;48.652;9.194;2023-07-22T14:45:37;3.80;;;3.20;;
69410;SDS011;56604;48.652;9.194;2023-07-22T14:48:02;4.20;;;3.03;;
69410;SDS011;56604;48.652;9.194;2023-07-22T14:50:27;4.53;;;3.30;;